createdAt,value
2019-01-29T00:03:22.789Z,0.50
2019-01-29T00:06:39.630Z,0.40
2019-01-29T00:09:56.211Z,0.90
2019-01-29T00:13:03.515Z,0.73
2019-01-29T00:16:10.719Z,0.60
2019-01-29T00:19:17.910Z,0.50
2019-01-29T00:22:34.644Z,0.50
2019-01-29T00:25:41.922Z,0.40
2019-01-29T00:28:49.070Z,1.10
2019-01-29T00:32:05.912Z,0.90
2019-01-29T00:35:13.336Z,0.40
2019-01-29T00:38:29.872Z,0.40
2019-01-29T00:41:46.645Z,0.73
2019-01-29T00:44:53.765Z,0.23
2019-01-29T00:48:10.465Z,0.20
2019-01-29T00:51:17.763Z,0.10
2019-01-29T00:54:34.506Z,0.50
2019-01-29T00:57:51.302Z,0.10
2019-01-29T01:00:58.674Z,0.70
2019-01-29T01:04:15.418Z,0.40
2019-01-29T01:07:32.137Z,0.37
2019-01-29T01:10:39.285Z,0.80
2019-01-29T01:13:46.646Z,0.60
2019-01-29T01:17:03.391Z,0.80
2019-01-29T01:20:13.236Z,1.03
2019-01-29T01:23:20.439Z,0.60
2019-01-29T01:26:48.354Z,0.53
2019-01-29T01:29:55.567Z,0.50
2019-01-29T01:33:02.813Z,0.30
2019-01-29T01:36:10.333Z,0.43
2019-01-29T01:39:17.561Z,0.40
2019-01-29T01:42:24.764Z,1.03
2019-01-29T01:45:32.149Z,0.70
2019-01-29T01:48:39.321Z,0.90
2019-01-29T01:51:46.476Z,0.23
2019-01-29T01:54:53.910Z,0.70
2019-01-29T01:58:10.548Z,1.17
2019-01-29T02:01:17.944Z,0.43
2019-01-29T02:04:34.401Z,0.63
2019-01-29T02:07:41.766Z,1.13
2019-01-29T02:10:58.541Z,0.57
2019-01-29T02:14:15.153Z,1.03
2019-01-29T02:17:22.279Z,0.77
2019-01-29T02:20:29.651Z,0.97
2019-01-29T02:23:46.342Z,0.40
2019-01-29T02:26:53.635Z,0.53
2019-01-29T02:30:00.866Z,0.53
2019-01-29T02:33:17.695Z,0.60
2019-01-29T02:36:34.407Z,0.60
2019-01-29T02:39:41.731Z,0.73
2019-01-29T02:42:48.868Z,0.60
2019-01-29T02:46:05.895Z,1.57
2019-01-29T02:49:22.404Z,0.77
2019-01-29T02:52:39.185Z,0.70
2019-01-29T02:55:46.370Z,0.87
2019-01-29T02:58:53.510Z,0.20
2019-01-29T03:02:00.849Z,0.73
2019-01-29T03:05:17.804Z,0.67
2019-01-29T03:08:34.403Z,0.50
2019-01-29T03:11:41.823Z,1.00
2019-01-29T03:14:58.438Z,0.20
2019-01-29T03:18:15.337Z,0.20
2019-01-29T03:21:32.017Z,1.27
2019-01-29T03:24:39.279Z,0.73
2019-01-29T03:27:55.956Z,0.20
2019-01-29T03:31:12.741Z,0.80
2019-01-29T03:34:29.473Z,0.40
2019-01-29T03:37:46.234Z,0.60
2019-01-29T03:41:03.048Z,0.20
2019-01-29T03:44:19.736Z,0.40
2019-01-29T03:47:27.031Z,0.40
2019-01-29T03:50:33.783Z,0.30
2019-01-29T03:53:41.103Z,1.10
2019-01-29T03:56:48.343Z,0.20
2019-01-29T03:59:55.548Z,0.43
2019-01-29T04:03:02.840Z,0.43
2019-01-29T04:06:10.150Z,0.33
2019-01-29T04:09:17.449Z,0.77
2019-01-29T04:12:24.650Z,0.80
2019-01-29T04:15:32.573Z,0.30
2019-01-29T04:18:39.978Z,0.33
2019-01-29T04:21:47.175Z,0.20
2019-01-29T04:24:54.552Z,0.20
2019-01-29T04:28:01.793Z,0.10
2019-01-29T04:31:09.086Z,0.40
2019-01-29T04:34:16.369Z,0.40
2019-01-29T04:37:23.643Z,0.20
2019-01-29T04:40:30.951Z,0.17
2019-01-29T04:43:47.701Z,0.03
2019-01-29T04:46:54.930Z,0.57
2019-01-29T04:50:02.127Z,0.17
2019-01-29T04:53:09.419Z,0.10
2019-01-29T04:56:16.571Z,0.20
2019-01-29T04:59:23.793Z,0.40
2019-01-29T05:02:31.118Z,0.43
2019-01-29T05:05:47.729Z,0.00
2019-01-29T05:09:08.103Z,0.13
2019-01-29T05:12:24.466Z,0.20
2019-01-29T05:15:31.741Z,0.13
2019-01-29T05:18:48.407Z,0.10
2019-01-29T05:21:55.634Z,0.30
2019-01-29T05:25:02.777Z,0.17
2019-01-29T05:28:10.005Z,0.00
2019-01-29T05:31:26.843Z,0.30
2019-01-29T05:34:34.043Z,0.20
2019-01-29T05:37:41.309Z,0.63
2019-01-29T05:40:58.011Z,0.53
2019-01-29T05:44:14.838Z,0.10
2019-01-29T05:47:21.970Z,0.30
2019-01-29T05:50:29.109Z,0.00
2019-01-29T05:53:36.605Z,0.10
2019-01-29T05:56:53.262Z,0.43
2019-01-29T06:00:00.446Z,0.40
2019-01-29T06:03:17.154Z,0.43
2019-01-29T06:06:24.449Z,0.33
2019-01-29T06:09:41.137Z,0.97
2019-01-29T06:12:48.431Z,0.40
2019-01-29T06:15:55.604Z,0.30
2019-01-29T06:19:12.348Z,0.20
2019-01-29T06:22:19.542Z,0.20
2019-01-29T06:25:26.853Z,0.37
2019-01-29T06:28:34.126Z,0.73
2019-01-29T06:31:50.716Z,0.70
2019-01-29T06:34:57.951Z,0.80
2019-01-29T06:38:14.714Z,0.40
2019-01-29T06:41:31.393Z,0.30
2019-01-29T06:44:38.618Z,0.20
2019-01-29T06:47:46.030Z,0.30
2019-01-29T06:51:02.563Z,0.60
2019-01-29T06:54:09.771Z,1.07
2019-01-29T06:57:16.997Z,0.70
2019-01-29T07:00:26.573Z,0.60
2019-01-29T07:03:33.829Z,0.70
2019-01-29T07:06:41.059Z,0.60
2019-01-29T07:09:48.305Z,0.83
2019-01-29T07:12:56.009Z,0.43
2019-01-29T07:16:12.610Z,0.50
2019-01-29T07:19:32.752Z,0.50
2019-01-29T07:22:40.088Z,0.57
2019-01-29T07:25:47.315Z,0.80
2019-01-29T07:28:54.677Z,0.90
2019-01-29T07:32:11.504Z,0.20
2019-01-29T07:35:28.156Z,0.50
2019-01-29T07:38:35.353Z,0.43
2019-01-29T07:41:52.266Z,0.57
2019-01-29T07:45:09.241Z,0.87
2019-01-29T07:48:16.834Z,0.30
2019-01-29T07:51:24.218Z,0.60
2019-01-29T07:54:33.398Z,0.37
2019-01-29T07:57:40.457Z,0.27
2019-01-29T08:00:47.908Z,0.63
2019-01-29T08:03:55.022Z,0.67
2019-01-29T08:07:02.552Z,0.50
2019-01-29T08:10:09.960Z,0.50
2019-01-29T08:13:26.629Z,0.63
2019-01-29T08:16:43.392Z,0.33
2019-01-29T08:19:59.980Z,1.30
2019-01-29T08:23:07.283Z,0.73
2019-01-29T08:26:14.398Z,0.50
2019-01-29T08:29:21.693Z,0.73
2019-01-29T08:32:38.616Z,0.67
2019-01-29T08:35:55.430Z,0.57
2019-01-29T08:39:03.309Z,0.73
2019-01-29T08:42:10.562Z,0.90
2019-01-29T08:45:18.097Z,0.60
2019-01-29T08:48:25.398Z,0.83
2019-01-29T08:51:32.823Z,0.37
2019-01-29T08:54:39.982Z,0.83
2019-01-29T08:57:57.006Z,1.00
2019-01-29T09:01:04.374Z,0.43
2019-01-29T09:04:21.004Z,0.30
2019-01-29T09:07:28.308Z,0.70
2019-01-29T09:10:35.583Z,1.20
2019-01-29T09:13:52.241Z,1.07
2019-01-29T09:16:59.510Z,0.10
2019-01-29T09:20:07.214Z,0.87
2019-01-29T09:23:14.409Z,0.43
2019-01-29T09:26:21.794Z,1.20
2019-01-29T09:29:29.107Z,0.53
2019-01-29T09:32:36.331Z,0.23
2019-01-29T09:35:43.792Z,0.47
2019-01-29T09:38:50.985Z,0.70
2019-01-29T09:41:58.291Z,0.30
2019-01-29T09:45:05.138Z,0.67
2019-01-29T09:48:12.443Z,1.03
2019-01-29T09:51:19.635Z,0.63
2019-01-29T09:54:26.867Z,0.83
2019-01-29T09:57:33.980Z,0.40
2019-01-29T10:00:41.211Z,0.40
2019-01-29T10:03:49.037Z,0.40
2019-01-29T10:06:55.276Z,0.50
2019-01-29T10:10:02.573Z,0.40
2019-01-29T10:13:10.077Z,0.50
2019-01-29T10:16:17.576Z,0.90
2019-01-29T10:19:24.767Z,0.90
2019-01-29T10:22:32.000Z,0.67
2019-01-29T10:25:39.305Z,0.97
2019-01-29T10:28:46.505Z,1.17
2019-01-29T10:31:53.811Z,1.33
2019-01-29T10:35:01.606Z,0.87
2019-01-29T10:38:08.042Z,0.90
2019-01-29T10:41:15.332Z,1.60
2019-01-29T10:44:22.668Z,0.87
2019-01-29T10:47:29.147Z,0.93
2019-01-29T10:50:36.559Z,1.53
2019-01-29T10:53:42.237Z,1.13
2019-01-29T10:56:49.441Z,1.47
2019-01-29T10:59:56.658Z,0.97
2019-01-29T11:03:03.969Z,0.53
2019-01-29T11:06:11.374Z,0.90
2019-01-29T11:09:25.353Z,0.50
2019-01-29T11:12:37.124Z,2.10
2019-01-29T11:15:43.462Z,1.60
2019-01-29T11:18:50.834Z,0.83
2019-01-29T11:21:57.961Z,0.77
2019-01-29T11:25:07.579Z,0.57
2019-01-29T11:28:24.219Z,0.80
2019-01-29T11:31:31.395Z,0.60
2019-01-29T11:34:38.625Z,0.20
2019-01-29T11:37:55.500Z,0.60
2019-01-29T11:41:12.176Z,0.27
2019-01-29T11:44:28.952Z,0.50
2019-01-29T11:47:34.473Z,0.90
2019-01-29T11:50:41.834Z,0.53
2019-01-29T11:53:48.957Z,0.53
2019-01-29T11:56:56.152Z,0.50
2019-01-29T12:00:04.264Z,0.63
2019-01-29T12:03:11.390Z,0.87
2019-01-29T12:06:18.532Z,0.60
2019-01-29T12:09:25.730Z,0.60
2019-01-29T12:12:32.972Z,0.33
2019-01-29T12:15:40.244Z,0.87
2019-01-29T12:18:47.376Z,0.77
2019-01-29T12:21:54.641Z,0.50
2019-01-29T12:25:01.872Z,0.60
2019-01-29T12:28:09.365Z,0.40
2019-01-29T12:31:16.562Z,1.03
2019-01-29T12:34:23.743Z,0.50
2019-01-29T12:37:30.947Z,0.33
2019-01-29T12:40:38.242Z,0.50
2019-01-29T12:43:45.628Z,0.53
2019-01-29T12:46:52.929Z,0.93
2019-01-29T12:50:00.291Z,0.63
2019-01-29T12:53:19.408Z,0.67
2019-01-29T12:56:26.533Z,0.83
2019-01-29T12:59:33.881Z,0.50
2019-01-29T13:02:39.958Z,1.10
2019-01-29T13:05:47.078Z,0.80
2019-01-29T13:08:54.311Z,1.20
2019-01-29T13:12:01.334Z,0.43
2019-01-29T13:15:09.725Z,0.50
2019-01-29T13:18:17.093Z,0.97
2019-01-29T13:21:24.327Z,0.97
2019-01-29T13:24:30.189Z,0.60
2019-01-29T13:27:37.553Z,1.00
2019-01-29T13:30:44.851Z,1.13
2019-01-29T13:34:01.769Z,0.60
2019-01-29T13:37:08.993Z,1.00
2019-01-29T13:40:16.697Z,2.93
2019-01-29T13:43:23.900Z,0.60
2019-01-29T13:46:30.305Z,0.90
2019-01-29T13:49:47.364Z,0.63
2019-01-29T13:52:54.495Z,1.20
2019-01-29T13:56:01.093Z,2.17
2019-01-29T13:59:08.384Z,1.33
2019-01-29T14:02:25.645Z,0.97
2019-01-29T14:05:34.360Z,1.87
2019-01-29T14:08:41.933Z,1.97
2019-01-29T14:11:58.596Z,1.70
2019-01-29T14:15:21.523Z,1.00
2019-01-29T14:18:31.009Z,1.50
2019-01-29T14:21:37.399Z,1.67
2019-01-29T14:24:44.799Z,2.00
2019-01-29T14:27:52.082Z,1.33
2019-01-29T14:31:14.848Z,1.13
2019-01-29T14:34:23.007Z,1.73
2019-01-29T14:37:31.796Z,1.23
2019-01-29T14:40:39.255Z,1.40
2019-01-29T14:43:48.497Z,1.00
2019-01-29T14:47:05.388Z,2.10
2019-01-29T14:50:13.702Z,0.90
2019-01-29T14:53:21.009Z,1.50
2019-01-29T14:56:28.417Z,1.00
2019-01-29T14:59:36.650Z,2.37
2019-01-29T15:02:43.996Z,2.20
2019-01-29T15:05:51.715Z,2.03
2019-01-29T15:08:59.140Z,2.23
2019-01-29T15:12:15.687Z,1.53
2019-01-29T15:15:24.185Z,1.30
2019-01-29T15:18:34.515Z,2.17
2019-01-29T15:21:41.921Z,1.50
2019-01-29T15:24:49.158Z,1.53
2019-01-29T15:27:56.351Z,1.70
2019-01-29T15:31:03.628Z,2.07
2019-01-29T15:34:20.492Z,1.43
2019-01-29T15:37:37.335Z,1.33
2019-01-29T15:40:54.123Z,1.77
2019-01-29T15:44:10.824Z,1.57
2019-01-29T15:47:27.605Z,1.13
2019-01-29T15:50:35.270Z,0.73
2019-01-29T15:53:42.660Z,1.10
2019-01-29T15:56:49.869Z,1.03
2019-01-29T15:59:57.216Z,1.40
2019-01-29T16:03:04.505Z,1.50
2019-01-29T16:06:11.708Z,1.17
2019-01-29T16:09:18.836Z,1.13
2019-01-29T16:12:25.538Z,0.70
2019-01-29T16:15:42.268Z,0.80
2019-01-29T16:19:05.058Z,0.50
2019-01-29T16:22:21.468Z,0.60
2019-01-29T16:25:28.821Z,1.00
2019-01-29T16:28:45.540Z,0.73
2019-01-29T16:31:52.738Z,1.63
2019-01-29T16:35:10.960Z,0.73
2019-01-29T16:38:18.346Z,0.80
2019-01-29T16:41:35.076Z,0.97
2019-01-29T16:44:42.380Z,1.30
2019-01-29T16:47:49.795Z,0.97
2019-01-29T16:51:06.676Z,2.17
2019-01-29T16:54:23.264Z,0.87
2019-01-29T16:57:31.705Z,0.93
2019-01-29T17:00:48.945Z,0.93
2019-01-29T17:03:56.067Z,1.33
2019-01-29T17:07:03.552Z,1.03
2019-01-29T17:10:12.127Z,0.80
2019-01-29T17:13:28.896Z,0.93
2019-01-29T17:16:36.230Z,1.50
2019-01-29T17:19:58.876Z,1.40
2019-01-29T17:23:15.999Z,1.80
2019-01-29T17:26:32.330Z,0.70
2019-01-29T17:29:39.514Z,1.37
2019-01-29T17:32:46.939Z,1.40
2019-01-29T17:36:03.603Z,1.67
2019-01-29T17:39:20.339Z,1.53
2019-01-29T17:42:37.312Z,0.77
2019-01-29T17:45:46.910Z,1.50
2019-01-29T17:48:54.104Z,1.73
2019-01-29T17:52:01.554Z,1.77
2019-01-29T17:55:10.343Z,1.40
2019-01-29T17:58:17.815Z,1.67
2019-01-29T18:01:25.015Z,2.47
2019-01-29T18:04:33.250Z,1.60
2019-01-29T18:07:40.631Z,2.27
2019-01-29T18:10:47.915Z,1.33
2019-01-29T18:13:55.179Z,1.60
2019-01-29T18:17:02.578Z,0.83
2019-01-29T18:20:09.990Z,1.20
2019-01-29T18:23:17.219Z,2.13
2019-01-29T18:26:24.306Z,2.13
2019-01-29T18:29:32.611Z,1.67
2019-01-29T18:32:40.098Z,1.57
2019-01-29T18:35:47.323Z,1.57
2019-01-29T18:38:54.471Z,1.87
2019-01-29T18:42:01.663Z,1.50
2019-01-29T18:45:11.354Z,2.10
2019-01-29T18:48:18.479Z,1.37
2019-01-29T18:51:25.605Z,1.80
2019-01-29T18:54:41.836Z,1.67
2019-01-29T18:57:49.042Z,1.40
2019-01-29T19:00:56.234Z,1.57
2019-01-29T19:04:03.351Z,1.57
2019-01-29T19:07:20.352Z,1.60
2019-01-29T19:10:27.555Z,1.60
2019-01-29T19:13:44.240Z,1.83
2019-01-29T19:16:51.463Z,2.43
2019-01-29T19:19:58.740Z,1.70
2019-01-29T19:23:15.449Z,1.90
2019-01-29T19:26:22.730Z,1.73
2019-01-29T19:29:30.294Z,2.50
2019-01-29T19:32:46.696Z,1.73
2019-01-29T19:36:03.516Z,1.50
2019-01-29T19:39:20.177Z,1.23
2019-01-29T19:42:27.922Z,2.03
2019-01-29T19:45:45.283Z,2.50
2019-01-29T19:48:52.448Z,3.10
2019-01-29T19:51:59.845Z,1.83
2019-01-29T19:55:07.417Z,1.20
2019-01-29T19:58:31.997Z,1.47
2019-01-29T20:01:42.810Z,2.13
2019-01-29T20:04:59.380Z,1.77
2019-01-29T20:08:16.169Z,2.10
2019-01-29T20:11:23.519Z,1.53
2019-01-29T20:14:29.343Z,2.27
2019-01-29T20:17:46.673Z,1.90
2019-01-29T20:20:53.902Z,1.30
2019-01-29T20:24:01.233Z,2.30
2019-01-29T20:27:08.422Z,2.13
2019-01-29T20:30:18.444Z,1.70
2019-01-29T20:33:25.643Z,1.70
2019-01-29T20:36:32.769Z,1.87
2019-01-29T20:39:49.239Z,1.53
2019-01-29T20:43:06.200Z,1.67
2019-01-29T20:46:23.054Z,2.17
2019-01-29T20:49:39.633Z,1.50
2019-01-29T20:52:56.580Z,1.87
2019-01-29T20:56:13.256Z,1.90
2019-01-29T20:59:29.956Z,2.43
2019-01-29T21:02:36.134Z,1.97
2019-01-29T21:05:43.478Z,2.83
2019-01-29T21:08:50.687Z,3.00
2019-01-29T21:11:57.894Z,2.80
2019-01-29T21:15:06.895Z,3.33
2019-01-29T21:18:14.222Z,2.07
2019-01-29T21:21:21.535Z,2.57
2019-01-29T21:24:29.026Z,3.47
2019-01-29T21:27:36.326Z,3.00
2019-01-29T21:30:53.916Z,3.07
2019-01-29T21:34:01.307Z,2.83
2019-01-29T21:37:08.622Z,2.37
2019-01-29T21:40:16.181Z,1.80
2019-01-29T21:43:23.385Z,2.63
2019-01-29T21:46:30.508Z,2.30
2019-01-29T21:49:37.815Z,3.03
2019-01-29T21:52:43.492Z,1.77
2019-01-29T21:55:50.606Z,2.30
2019-01-29T21:58:57.731Z,2.30
2019-01-29T22:02:04.937Z,3.37
2019-01-29T22:05:12.345Z,2.30
2019-01-29T22:08:19.543Z,2.50
2019-01-29T22:11:26.892Z,3.70
2019-01-29T22:14:43.507Z,3.77
2019-01-29T22:17:50.900Z,2.77
2019-01-29T22:21:07.551Z,3.00
2019-01-29T22:24:24.261Z,2.90
2019-01-29T22:27:31.464Z,3.60
2019-01-29T22:30:40.077Z,1.97
2019-01-29T22:33:47.202Z,4.03
2019-01-29T22:36:54.325Z,3.63
2019-01-29T22:40:00.409Z,4.10
2019-01-29T22:43:17.004Z,2.00
2019-01-29T22:46:24.327Z,1.87
2019-01-29T22:49:40.996Z,2.27
2019-01-29T22:52:48.294Z,1.93
2019-01-29T22:55:55.583Z,2.10
2019-01-29T22:59:12.163Z,2.30
2019-01-29T23:02:19.506Z,3.23
2019-01-29T23:05:26.037Z,1.63
2019-01-29T23:08:33.314Z,2.83
2019-01-29T23:11:40.594Z,2.63
2019-01-29T23:14:47.798Z,1.80
2019-01-29T23:17:55.214Z,2.27
2019-01-29T23:21:02.521Z,1.43
2019-01-29T23:24:08.742Z,2.40
2019-01-29T23:27:16.115Z,2.67
2019-01-29T23:30:23.702Z,2.40
2019-01-29T23:33:30.834Z,4.03
2019-01-29T23:36:38.129Z,2.73
2019-01-29T23:39:45.430Z,2.87
2019-01-29T23:42:52.613Z,2.30
2019-01-29T23:45:59.873Z,3.70
2019-01-29T23:49:07.091Z,2.27
2019-01-29T23:52:14.222Z,1.70
2019-01-29T23:55:21.473Z,1.33
2019-01-29T23:58:28.804Z,2.07
